Time;durP1;ratioP1;P1;durP2;ratioP2;P2;SDS_P1;SDS_P2;PMS_P1;PMS_P2;Temp;Humidity;BMP_temperature;BMP_pressure;BME280_temperature;BME280_humidity;BME280_pressure;Samples;Min_cycle;Max_cycle;Signal;HPM_P1;HPM_P2
2020/12/29 00:02:06;;;;;;;55.20;25.27;;;;;;;-0.49;92.73;99853.86;1828234;78;21107;-63
2020/12/29 00:04:34;;;;;;;44.77;21.35;;;;;;;-0.48;92.65;99834.91;1836969;77;21604;-61
2020/12/29 00:07:01;;;;;;;56.18;26.02;;;;;;;-0.47;92.62;99823.25;1828448;78;21269;-62
2020/12/29 00:09:33;;;;;;;64.75;26.85;;;;;;;-0.47;92.68;99826.28;1828193;77;21741;-62
2020/12/29 00:12:02;;;;;;;54.20;25.20;;;;;;;-0.48;92.63;99835.77;1828287;78;21166;-62
2020/12/29 00:14:31;;;;;;;51.28;22.62;;;;;;;-0.48;92.69;99840.09;1828243;78;21199;-60
2020/12/29 00:16:59;;;;;;;51.70;22.77;;;;;;;-0.46;92.68;99827.99;1828169;77;21095;-61
2020/12/29 00:19:27;;;;;;;49.20;23.35;;;;;;;-0.46;92.68;99843.52;1828154;78;21178;-62
2020/12/29 00:21:55;;;;;;;54.60;24.32;;;;;;;-0.43;92.68;99833.20;1828307;77;21662;-63
2020/12/29 00:24:22;;;;;;;56.75;25.35;;;;;;;-0.46;92.73;99833.16;1828303;78;21119;-60
2020/12/29 00:26:52;;;;;;;56.08;26.20;;;;;;;-0.49;92.82;99827.99;1822102;78;21461;-61
2020/12/29 00:29:19;;;;;;;47.15;22.20;;;;;;;-0.48;92.80;99842.67;1806491;79;21145;-61
2020/12/29 00:31:48;;;;;;;47.93;21.27;;;;;;;-0.48;92.79;99830.59;1806675;79;22255;-61
2020/12/29 00:34:17;;;;;;;47.13;21.07;;;;;;;-0.51;92.87;99812.46;1778128;79;21207;-61
2020/12/29 00:36:44;;;;;;;52.13;23.05;;;;;;;-0.51;92.91;99809.87;1753411;77;21586;-73
2020/12/29 00:39:12;;;;;;;43.35;19.77;;;;;;;-0.49;92.85;99808.16;1783892;80;21182;-73
2020/12/29 00:41:40;;;;;;;48.25;22.85;;;;;;;-0.49;92.82;99807.30;1790682;80;21126;-75
2020/12/29 00:44:08;;;;;;;49.00;21.35;;;;;;;-0.51;92.84;99829.27;1792456;80;21162;-76
2020/12/29 00:46:36;;;;;;;51.02;22.67;;;;;;;-0.50;92.82;99824.98;1793391;79;21090;-77
2020/12/29 00:49:04;;;;;;;53.25;25.32;;;;;;;-0.48;92.78;99824.56;1792816;79;21586;-80
2020/12/29 00:51:32;;;;;;;56.53;24.43;;;;;;;-0.47;92.78;99830.16;1793858;80;21845;-79
2020/12/29 00:54:02;;;;;;;57.75;24.67;;;;;;;-0.49;92.85;99826.27;1794007;79;21090;-78
2020/12/29 00:56:35;;;;;;;59.40;27.02;;;;;;;-0.49;92.82;99810.74;1792873;79;21241;-77
2020/12/29 00:59:06;;;;;;;51.35;24.40;;;;;;;-0.47;92.86;99779.72;1792050;80;21150;-77
2020/12/29 01:01:34;;;;;;;45.43;20.45;;;;;;;-0.49;92.93;99756.42;1793220;79;21129;-78
2020/12/29 01:04:13;;;;;;;53.08;23.25;;;;;;;-0.48;92.93;99801.28;1780026;79;21181;-77
2020/12/29 01:06:42;;;;;;;53.70;25.30;;;;;;;-0.46;92.99;99795.66;1761882;81;21141;-76
2020/12/29 01:09:11;;;;;;;70.92;28.73;;;;;;;-0.45;93.04;99801.28;1761873;80;21201;-76
2020/12/29 01:11:39;;;;;;;63.58;27.70;;;;;;;-0.50;93.17;99805.59;1760727;81;21644;-74
2020/12/29 01:14:09;;;;;;;62.35;26.45;;;;;;;-0.47;93.21;99803.00;1760702;81;21680;-76
2020/12/29 01:16:39;;;;;;;52.23;22.27;;;;;;;-0.47;93.26;99790.92;1760202;80;21118;-75
2020/12/29 01:19:07;;;;;;;64.32;28.67;;;;;;;-0.49;93.27;99816.36;1755631;81;21181;-76
2020/12/29 01:21:34;;;;;;;55.45;24.57;;;;;;;-0.49;93.33;99796.95;1760058;80;23523;-76
2020/12/29 01:24:02;;;;;;;58.48;26.00;;;;;;;-0.47;93.27;99802.56;1759383;81;21613;-75
2020/12/29 01:26:31;;;;;;;61.98;27.22;;;;;;;-0.49;93.26;99772.37;1760993;81;21102;-77
2020/12/29 01:28:59;;;;;;;51.80;24.30;;;;;;;-0.49;93.23;99776.25;1760377;81;21449;-78
2020/12/29 01:31:33;;;;;;;58.20;25.62;;;;;;;-0.47;93.20;99778.42;1762991;81;21145;-79
2020/12/29 01:34:02;;;;;;;58.10;25.52;;;;;;;-0.48;93.15;99784.47;1758201;81;23450;-80
2020/12/29 01:36:32;;;;;;;46.05;19.82;;;;;;;-0.49;93.11;99774.53;1753784;81;21179;-80
2020/12/29 01:38:59;;;;;;;48.58;22.10;;;;;;;-0.50;93.06;99769.38;1724458;83;21093;-78
2020/12/29 01:41:27;;;;;;;46.60;22.07;;;;;;;-0.50;93.13;99777.12;1710460;81;21193;-80
2020/12/29 01:43:55;;;;;;;57.05;23.77;;;;;;;-0.48;93.09;99781.45;1763439;81;21131;-76
2020/12/29 01:46:23;;;;;;;49.08;21.57;;;;;;;-0.48;93.15;99783.17;1761087;81;22361;-80
2020/12/29 01:48:50;;;;;;;57.58;25.50;;;;;;;-0.48;93.09;99775.41;1764601;81;21036;-80
2020/12/29 01:51:18;;;;;;;49.90;23.57;;;;;;;-0.49;93.13;99770.64;1764701;81;21102;-79
2020/12/29 01:53:45;;;;;;;51.50;22.58;;;;;;;-0.47;93.12;99757.72;1709206;81;21166;-79
2020/12/29 01:56:13;;;;;;;52.10;23.65;;;;;;;-0.49;93.14;99758.15;1763638;81;21736;-80
2020/12/29 01:58:44;;;;;;;45.92;21.62;;;;;;;-0.51;93.25;99757.28;1764393;81;21496;-81
2020/12/29 02:01:13;;;;;;;51.35;23.07;;;;;;;-0.50;93.25;99769.38;1764340;81;21317;-80
2020/12/29 02:03:43;;;;;;;51.63;22.30;;;;;;;-0.52;93.37;99752.98;1764506;80;21210;-81
2020/12/29 02:06:13;;;;;;;57.67;26.25;;;;;;;-0.51;93.40;99760.72;1764635;80;21166;-80
2020/12/29 02:08:41;;;;;;;54.45;24.07;;;;;;;-0.53;93.47;99748.25;1766820;79;21157;-79
2020/12/29 02:11:09;;;;;;;59.08;25.72;;;;;;;-0.52;93.50;99738.31;1769162;80;21509;-82
2020/12/29 02:13:43;;;;;;;52.45;23.80;;;;;;;-0.52;93.52;99739.61;1741941;78;21214;-82
2020/12/29 02:16:13;;;;;;;55.88;23.85;;;;;;;-0.51;93.52;99734.00;1732884;80;21107;-81
2020/12/29 02:18:41;;;;;;;49.67;22.90;;;;;;;-0.53;93.48;99720.20;1732926;80;21171;-80
2020/12/29 02:21:08;;;;;;;46.15;19.15;;;;;;;-0.52;93.50;99720.64;1724704;79;21115;-82
2020/12/29 02:23:36;;;;;;;47.75;21.45;;;;;;;-0.50;93.43;99713.75;1740266;81;21399;-82
2020/12/29 02:26:04;;;;;;;52.08;21.95;;;;;;;-0.52;93.45;99731.84;1753074;81;21070;-81
2020/12/29 02:28:32;;;;;;;45.80;21.07;;;;;;;-0.52;93.38;99712.89;1770883;81;21124;-81
2020/12/29 02:30:59;;;;;;;48.05;22.32;;;;;;;-0.45;93.31;99728.84;1772399;81;21127;-82
2020/12/29 02:33:27;;;;;;;45.33;21.33;;;;;;;-0.46;93.29;99735.75;1763444;79;21206;-83
2020/12/29 02:35:55;;;;;;;49.55;21.10;;;;;;;-0.45;93.28;99719.79;1730539;81;21171;-83
2020/12/29 02:38:24;;;;;;;38.25;18.70;;;;;;;-0.46;93.25;99725.80;1710659;84;21126;-79
2020/12/29 02:40:52;;;;;;;48.28;19.90;;;;;;;-0.45;93.21;99726.26;1710457;84;21153;-80
2020/12/29 02:43:20;;;;;;;57.13;23.57;;;;;;;-0.48;93.20;99728.41;1710127;84;21162;-79
2020/12/29 02:45:48;;;;;;;53.55;23.25;;;;;;;-0.48;93.19;99723.67;1706040;84;21632;-76
2020/12/29 02:48:16;;;;;;;49.38;20.77;;;;;;;-0.52;93.28;99703.83;1706067;84;21696;-75
2020/12/29 02:50:43;;;;;;;46.68;20.55;;;;;;;-0.49;93.24;99730.98;1705876;84;21233;-76
2020/12/29 02:53:11;;;;;;;46.28;20.02;;;;;;;-0.46;93.19;99732.27;1705838;84;21197;-76
2020/12/29 02:55:39;;;;;;;38.50;17.12;;;;;;;-0.47;93.13;99717.63;1706763;84;21219;-79
2020/12/29 02:58:07;;;;;;;39.23;17.25;;;;;;;-0.47;93.07;99723.66;1707432;84;21151;-77
2020/12/29 03:00:36;;;;;;;38.75;18.92;;;;;;;-0.46;92.96;99727.09;1706833;84;22356;-74
2020/12/29 03:03:04;;;;;;;34.15;16.45;;;;;;;-0.44;92.85;99708.56;1706362;82;21674;-76
2020/12/29 03:05:32;;;;;;;38.33;18.30;;;;;;;-0.44;92.78;99689.16;1706400;82;21615;-76
2020/12/29 03:08:00;;;;;;;36.93;17.10;;;;;;;-0.47;92.77;99702.96;1706539;84;21694;-75
2020/12/29 03:10:27;;;;;;;34.43;15.63;;;;;;;-0.45;92.71;99702.97;1705790;83;21646;-77
2020/12/29 03:12:55;;;;;;;32.90;16.02;;;;;;;-0.44;92.65;99715.03;1700591;81;21384;-76
2020/12/29 03:15:23;;;;;;;34.78;16.90;;;;;;;-0.48;92.71;99702.98;1700541;84;21181;-77
2020/12/29 03:17:51;;;;;;;33.70;15.90;;;;;;;-0.47;92.68;99691.76;1700530;84;21660;-78
2020/12/29 03:20:19;;;;;;;29.02;14.00;;;;;;;-0.44;92.64;99691.75;1699019;81;21220;-77
2020/12/29 03:22:47;;;;;;;32.98;16.25;;;;;;;-0.43;92.65;99705.14;1695473;84;21621;-77
2020/12/29 03:25:15;;;;;;;33.92;16.23;;;;;;;-0.46;92.67;99707.30;1695619;84;22394;-77
2020/12/29 03:27:43;;;;;;;24.72;13.22;;;;;;;-0.45;92.60;99706.42;1696537;84;21197;-77
2020/12/29 03:30:11;;;;;;;30.32;15.43;;;;;;;-0.43;92.50;99703.84;1695829;84;21170;-78
2020/12/29 03:32:38;;;;;;;28.40;13.62;;;;;;;-0.44;92.47;99693.93;1695907;81;21126;-75
2020/12/29 03:35:06;;;;;;;34.08;17.42;;;;;;;-0.44;92.52;99708.56;1695337;84;21602;-76
2020/12/29 03:37:34;;;;;;;26.12;14.45;;;;;;;-0.44;92.50;99696.92;1695512;83;21605;-75
2020/12/29 03:40:02;;;;;;;28.67;14.95;;;;;;;-0.41;92.44;99694.36;1702575;84;21182;-77
2020/12/29 03:42:33;;;;;;;30.00;15.45;;;;;;;-0.38;92.48;99701.26;1702662;84;21201;-76
2020/12/29 03:45:02;;;;;;;;;;;;;;;-0.38;92.46;99701.26;1705363;84;21174;-74
2020/12/29 03:47:31;;;;;;;29.82;14.30;;;;;;;-0.42;92.46;99704.26;1702679;84;20377;-82
2020/12/29 03:49:59;;;;;;;27.30;14.55;;;;;;;-0.43;92.48;99690.47;1690776;84;22326;-79
2020/12/29 03:52:27;;;;;;;31.73;15.20;;;;;;;-0.41;92.45;99689.19;1702353;84;21213;-80
2020/12/29 03:54:55;;;;;;;33.92;16.62;;;;;;;-0.45;92.61;99680.98;1724503;83;21182;-78
2020/12/29 03:57:23;;;;;;;35.78;13.72;;;;;;;-0.46;92.74;99676.66;1723580;83;21589;-76
2020/12/29 03:59:50;;;;;;;32.38;16.17;;;;;;;-0.48;92.80;99678.41;1694302;84;21623;-78
2020/12/29 04:02:17;;;;;;;34.95;17.48;;;;;;;-0.47;92.86;99686.59;1724190;81;21291;-77
2020/12/29 04:04:45;;;;;;;30.05;16.15;;;;;;;-0.46;92.90;99687.00;1694137;83;21232;-75
2020/12/29 04:07:13;;;;;;;36.77;17.90;;;;;;;-0.50;92.98;99679.69;1725078;83;21245;-76
2020/12/29 04:09:41;;;;;;;38.75;16.67;;;;;;;-0.50;93.12;99690.47;1693614;84;21631;-75
2020/12/29 04:12:09;;;;;;;40.12;18.60;;;;;;;-0.53;93.28;99698.20;1715303;81;22116;-75
2020/12/29 04:14:37;;;;;;;39.53;18.42;;;;;;;-0.50;93.27;99708.14;1692650;84;21227;-74
2020/12/29 04:17:05;;;;;;;46.02;20.68;;;;;;;-0.50;93.37;99708.58;1723437;83;21206;-80
2020/12/29 04:19:32;;;;;;;44.38;19.25;;;;;;;-0.49;93.44;99697.36;1693510;83;21663;-77
2020/12/29 04:22:00;;;;;;;47.93;19.98;;;;;;;-0.52;93.51;99702.54;1718747;83;22078;-78
2020/12/29 04:24:28;;;;;;;43.85;21.42;;;;;;;-0.51;93.49;99683.56;1686590;85;21143;-75
2020/12/29 04:26:57;;;;;;;44.10;20.20;;;;;;;-0.52;93.58;99685.73;1727082;81;21986;-75
2020/12/29 04:30:51;;;;;;;54.17;24.77;;;;;;;-0.46;93.65;99685.70;1774853;79;23410;-76
2020/12/29 04:33:19;;;;;;;51.00;21.50;;;;;;;-0.53;93.84;99703.38;1724484;82;21170;-76
2020/12/29 04:35:46;;;;;;;59.25;24.63;;;;;;;-0.51;93.81;99682.27;1718071;83;21410;-75
2020/12/29 04:38:14;;;;;;;56.37;24.75;;;;;;;-0.50;93.90;99690.47;1718017;83;21657;-76
2020/12/29 04:40:41;;;;;;;56.55;23.67;;;;;;;-0.54;93.99;99680.98;1718180;82;21227;-76
2020/12/29 04:43:09;;;;;;;58.52;24.47;;;;;;;-0.52;93.98;99673.65;1716394;83;21682;-74
2020/12/29 04:45:37;;;;;;;72.70;29.15;;;;;;;-0.53;94.09;99665.87;1716612;82;21194;-74
2020/12/29 04:48:04;;;;;;;67.20;29.32;;;;;;;-0.52;94.10;99672.80;1716521;83;21223;-74
2020/12/29 04:50:32;;;;;;;71.53;29.42;;;;;;;-0.51;94.21;99690.88;1716442;83;21179;-76
2020/12/29 04:53:00;;;;;;;65.17;26.97;;;;;;;-0.52;94.35;99685.73;1665830;83;21177;-76
2020/12/29 04:55:31;;;;;;;69.62;27.10;;;;;;;-0.49;94.27;99688.30;1688686;83;21179;-75
2020/12/29 04:58:01;;;;;;;;;;;;;;;-0.49;94.31;99687.01;1720486;83;21097;-78
2020/12/29 05:00:33;;;;;;;74.70;31.73;;;;;;;-0.52;94.43;99676.67;1719825;83;21464;-78
2020/12/29 05:03:00;;;;;;;;;;;;;;;-0.52;94.52;99667.62;1722319;83;21088;-78
2020/12/29 05:05:28;;;;;;;66.12;27.50;;;;;;;-0.53;94.65;99664.18;1718905;82;20232;-78
2020/12/29 05:07:56;;;;;;;64.55;21.05;;;;;;;-0.53;94.76;99671.05;1719106;83;21163;-79
2020/12/29 05:10:24;;;;;;;69.58;27.30;;;;;;;-0.53;94.80;99682.28;1718657;83;21246;-77
2020/12/29 05:12:52;;;;;;;84.35;31.97;;;;;;;-0.51;94.81;99674.50;1717393;82;21278;-76
2020/12/29 05:15:21;;;;;;;76.20;29.95;;;;;;;-0.53;94.92;99668.47;1713110;83;21667;-77
2020/12/29 05:17:48;;;;;;;92.00;37.17;;;;;;;-0.52;94.91;99654.69;1704693;84;21172;-77
2020/12/29 05:20:33;;;;;;;74.00;29.40;;;;;;;-0.51;94.91;99633.11;1704530;84;21462;-78
2020/12/29 05:22:51;;;;;;;82.20;32.35;;;;;;;-0.50;94.91;99638.73;1703180;83;21184;-76
2020/12/29 05:25:18;;;;;;;85.75;31.52;;;;;;;-0.52;94.99;99618.47;1704350;84;22159;-77
2020/12/29 05:27:45;;;;;;;84.90;29.70;;;;;;;-0.56;95.09;99624.50;1695326;84;22066;-76
2020/12/29 05:30:14;;;;;;;82.55;30.68;;;;;;;-0.59;95.33;99665.89;1637797;85;21740;-77
2020/12/29 05:32:41;;;;;;;84.25;33.18;;;;;;;-0.58;95.48;99685.71;1637599;85;21183;-74
2020/12/29 05:35:11;;;;;;;90.55;33.13;;;;;;;-0.59;95.56;99681.41;1681634;83;21492;-77
2020/12/29 05:37:43;;;;;;;83.65;31.85;;;;;;;-0.60;95.66;99676.64;1672090;85;21538;-76
2020/12/29 05:40:27;;;;;;;73.70;28.65;;;;;;;-0.61;95.79;99689.16;1672998;85;21147;-78
2020/12/29 05:42:56;;;;;;;70.20;27.58;;;;;;;-0.58;95.78;99671.48;1673292;85;21163;-78
2020/12/29 05:45:28;;;;;;;78.20;24.15;;;;;;;-0.60;95.89;99677.94;1672813;85;21227;-76
2020/12/29 05:47:58;;;;;;;77.70;31.73;;;;;;;-0.64;96.09;99658.98;1644847;85;21626;-78
2020/12/29 05:50:26;;;;;;;84.62;31.45;;;;;;;-0.64;96.24;99658.13;1673202;84;21341;-79
2020/12/29 05:53:00;;;;;;;84.80;33.38;;;;;;;-0.62;96.22;99665.87;1673921;84;21175;-78
2020/12/29 05:55:28;;;;;;;73.20;28.45;;;;;;;-0.60;96.21;99666.73;1670181;85;21645;-78
2020/12/29 05:58:08;;;;;;;72.90;29.32;;;;;;;-0.59;96.28;99681.41;1672065;84;21637;-78
2020/12/29 06:00:41;;;;;;;89.03;32.65;;;;;;;-0.61;96.34;99698.65;1672846;84;21139;-78
2020/12/29 06:03:09;;;;;;;75.17;30.68;;;;;;;-0.61;96.40;99697.36;1672709;85;22181;-77
2020/12/29 06:05:37;;;;;;;81.78;30.57;;;;;;;-0.64;96.56;99715.88;1671900;85;21214;-75
2020/12/29 06:08:07;;;;;;;75.25;27.70;;;;;;;-0.62;96.53;99687.85;1695744;83;21196;-77
2020/12/29 06:10:36;;;;;;;69.82;28.07;;;;;;;-0.63;96.67;99680.53;1700640;83;21877;-78
2020/12/29 06:13:05;;;;;;;76.47;28.67;;;;;;;-0.61;96.65;99672.78;1700925;83;21181;-76
2020/12/29 06:15:48;;;;;;;72.15;27.65;;;;;;;-0.65;96.78;99662.42;1709762;83;22717;-77
2020/12/29 06:18:16;;;;;;;67.78;27.32;;;;;;;-0.62;96.81;99659.41;1713637;83;21191;-77
2020/12/29 06:20:53;;;;;;;63.23;24.67;;;;;;;-0.62;96.84;99661.98;1663708;83;21123;-75
2020/12/29 06:23:22;;;;;;;61.53;24.12;;;;;;;-0.64;96.87;99653.81;1713363;83;21207;-76
2020/12/29 06:25:49;;;;;;;66.37;25.08;;;;;;;-0.60;96.88;99675.79;1685413;83;21191;-77
2020/12/29 06:28:17;;;;;;;71.67;25.95;;;;;;;-0.64;96.97;99649.94;1686729;83;22100;-76
2020/12/29 06:30:45;;;;;;;65.90;26.15;;;;;;;-0.70;97.21;99643.45;1686900;82;22185;-73
2020/12/29 06:33:18;;;;;;;63.10;26.37;;;;;;;-0.66;97.29;99642.60;1715090;83;21290;-75
2020/12/29 06:35:46;;;;;;;51.15;23.12;;;;;;;-0.64;97.26;99627.95;1712318;83;21199;-72
2020/12/29 06:38:24;;;;;;;70.05;28.15;;;;;;;-0.61;97.26;99640.02;1657139;85;21655;-71
2020/12/29 06:40:52;;;;;;;62.75;25.72;;;;;;;-0.64;97.31;99630.54;1655164;85;21382;-72
2020/12/29 06:43:22;;;;;;;59.18;24.30;;;;;;;-0.64;97.25;99627.95;1693755;83;21235;-71
2020/12/29 06:45:49;;;;;;;57.23;24.60;;;;;;;-0.65;97.30;99633.11;1678115;83;21495;-71
2020/12/29 06:48:17;;;;;;;52.53;21.93;;;;;;;-0.60;97.33;99646.05;1704099;83;21144;-73
2020/12/29 06:50:45;;;;;;;47.03;19.67;;;;;;;-0.64;97.35;99635.71;1696834;83;21178;-72
2020/12/29 06:53:18;;;;;;;53.33;23.15;;;;;;;-0.61;97.34;99657.27;1683724;85;22298;-71
2020/12/29 06:55:48;;;;;;;46.25;20.62;;;;;;;-0.64;97.42;99635.71;1677610;83;21641;-72
2020/12/29 06:58:32;;;;;;;40.35;15.72;;;;;;;-0.62;97.45;99626.67;1696981;83;21181;-72
2020/12/29 07:01:22;;;;;;;35.33;14.83;;;;;;;-0.62;97.47;99637.42;1690558;84;21155;-73
2020/12/29 07:04:05;;;;;;;43.38;17.73;;;;;;;-0.74;97.48;99631.81;1704678;83;21175;-72
2020/12/29 07:06:36;;;;;;;39.25;17.55;;;;;;;-0.66;97.62;99637.43;1698266;84;22106;-72
2020/12/29 07:09:21;;;;;;;37.65;17.00;;;;;;;-0.67;97.70;99637.42;1678357;84;21151;-72
2020/12/29 07:12:07;;;;;;;41.63;18.15;;;;;;;-0.66;97.71;99642.60;1695631;83;21208;-72
2020/12/29 07:14:36;;;;;;;39.67;18.07;;;;;;;-0.64;97.75;99634.42;1682388;83;21196;-73
2020/12/29 07:17:07;;;;;;;39.95;15.88;;;;;;;-0.64;97.81;99627.95;1692649;83;21175;-72
2020/12/29 07:19:40;;;;;;;43.42;17.70;;;;;;;-0.64;97.81;99648.64;1693714;83;21432;-73
2020/12/29 07:22:16;;;;;;;36.95;16.05;;;;;;;-0.64;97.90;99652.52;1694541;83;21206;-73
2020/12/29 07:24:45;;;;;;;36.08;17.45;;;;;;;-0.64;98.01;99656.41;1712445;83;21536;-72
2020/12/29 07:27:14;;;;;;;36.35;17.85;;;;;;;-0.61;98.00;99655.97;1701790;83;21206;-72
2020/12/29 07:29:56;;;;;;;34.85;14.68;;;;;;;-0.60;98.03;99649.92;1698852;83;21189;-72
2020/12/29 07:35:07;;;;;;;41.77;17.77;;;;;;;-0.58;98.08;99628.81;1724497;81;21554;-69
2020/12/29 07:37:35;;;;;;;40.43;17.32;;;;;;;-0.57;98.08;99631.84;1721698;81;22093;-69
2020/12/29 07:40:03;;;;;;;39.63;18.62;;;;;;;-0.56;98.11;99640.02;1722386;83;21187;-67
2020/12/29 07:42:32;;;;;;;43.08;18.67;;;;;;;-0.54;98.09;99635.71;1726895;81;21206;-68
2020/12/29 07:45:00;;;;;;;51.88;16.90;;;;;;;-0.54;98.10;99621.05;1750645;81;21662;-67
2020/12/29 07:47:28;;;;;;;41.30;17.35;;;;;;;-0.54;98.12;99656.41;1706851;81;21242;-68
2020/12/29 07:49:55;;;;;;;46.37;19.07;;;;;;;-0.54;98.13;99643.47;1708229;83;21203;-66
2020/12/29 07:52:24;;;;;;;44.55;19.12;;;;;;;-0.53;98.17;99658.11;1677201;83;21824;-66
2020/12/29 07:55:15;;;;;;;42.80;18.10;;;;;;;-0.50;98.23;99654.26;1722943;81;21211;-67
2020/12/29 07:57:43;;;;;;;45.52;19.32;;;;;;;-0.47;98.19;99645.20;1683100;79;21804;-72
2020/12/29 08:00:14;;;;;;;39.20;15.10;;;;;;;-0.50;98.25;99647.79;1657401;84;21200;-72
2020/12/29 08:02:53;;;;;;;45.10;19.40;;;;;;;-0.50;98.24;99637.00;1656321;84;21208;-72
2020/12/29 08:05:23;;;;;;;38.55;17.50;;;;;;;-0.51;98.28;99604.66;1638607;85;21183;-71
2020/12/29 08:07:55;;;;;;;46.05;19.32;;;;;;;-0.47;98.24;99636.14;1638252;87;21628;-73
2020/12/29 08:10:25;;;;;;;52.98;19.92;;;;;;;-0.48;98.19;99615.03;1652044;86;21368;-72
2020/12/29 08:12:55;;;;;;;40.92;17.90;;;;;;;-0.49;98.17;99603.80;1665306;85;22193;-72
2020/12/29 08:15:35;;;;;;;41.35;17.02;;;;;;;-0.48;98.16;99594.34;1665409;86;21183;-73
2020/12/29 08:18:10;;;;;;;37.40;17.13;;;;;;;-0.47;98.17;99597.34;1665188;85;21227;-73
2020/12/29 08:20:58;;;;;;;38.75;15.38;;;;;;;-0.46;98.16;99602.92;1665050;86;21636;-71
2020/12/29 08:23:29;;;;;;;40.50;16.07;;;;;;;-0.48;98.18;99592.60;1664609;86;21831;-74
2020/12/29 08:26:01;;;;;;;37.05;15.78;;;;;;;-0.46;98.20;99602.52;1661111;86;21188;-73
2020/12/29 08:28:31;;;;;;;36.20;15.90;;;;;;;-0.44;98.19;99593.45;1661297;86;21623;-73
2020/12/29 08:31:01;;;;;;;38.05;16.27;;;;;;;-0.42;98.19;99596.89;1688479;81;21193;-69
2020/12/29 08:33:29;;;;;;;34.07;15.73;;;;;;;-0.40;98.15;99588.70;1734008;82;21607;-69
2020/12/29 08:36:01;;;;;;;40.30;17.27;;;;;;;-0.38;98.13;99605.53;1712365;80;21527;-72
2020/12/29 08:38:50;;;;;;;46.42;19.07;;;;;;;-0.40;98.11;99623.62;1691816;84;21226;-70
2020/12/29 08:41:28;;;;;;;35.85;17.27;;;;;;;-0.40;98.09;99592.58;1691451;84;22019;-70
2020/12/29 08:44:01;;;;;;;40.50;17.60;;;;;;;-0.42;98.09;99587.84;1665647;84;21720;-71
2020/12/29 08:46:32;;;;;;;40.23;18.17;;;;;;;-0.40;98.11;99599.48;1678564;84;21207;-71
2020/12/29 08:49:04;;;;;;;29.15;12.30;;;;;;;-0.45;98.19;99578.80;1666321;84;21399;-72
2020/12/29 08:51:35;;;;;;;37.10;16.40;;;;;;;-0.41;98.18;99577.94;1693109;84;21210;-74
2020/12/29 08:54:14;;;;;;;;;;;;;;;-0.38;98.20;99574.48;1695938;84;21122;-71
2020/12/29 08:56:44;;;;;;;40.90;18.30;;;;;;;-0.37;98.21;99571.02;1689796;81;20284;-67
2020/12/29 08:59:19;;;;;;;36.77;14.28;;;;;;;-0.35;98.16;99557.20;1665893;84;21682;-68
2020/12/29 09:01:56;;;;;;;26.57;11.55;;;;;;;-0.33;98.18;99558.07;1669899;84;22231;-67
2020/12/29 09:04:42;;;;;;;35.23;15.95;;;;;;;-0.34;98.12;99548.60;1635500;86;21234;-69
2020/12/29 09:07:13;;;;;;;29.90;15.32;;;;;;;-0.32;98.15;99535.23;1655382;86;21218;-69
2020/12/29 09:09:56;;;;;;;30.23;14.68;;;;;;;-0.29;98.14;99519.69;1641239;86;21694;-67
2020/12/29 09:12:32;;;;;;;31.02;14.03;;;;;;;-0.29;98.11;99522.72;1649263;84;21222;-69
2020/12/29 09:15:09;;;;;;;28.47;13.08;;;;;;;-0.28;98.07;99522.69;1662348;86;21836;-70
2020/12/29 09:17:44;;;;;;;27.48;14.65;;;;;;;-0.26;98.01;99536.92;1662418;86;21790;-68
2020/12/29 09:20:21;;;;;;;28.80;13.43;;;;;;;-0.26;97.98;99511.05;1662386;86;21239;-67
2020/12/29 09:22:51;;;;;;;27.87;14.60;;;;;;;-0.25;97.93;99511.05;1661397;86;21218;-68
2020/12/29 09:25:32;;;;;;;29.20;14.85;;;;;;;-0.23;97.89;99498.98;1662493;86;21143;-68
2020/12/29 09:28:23;;;;;;;20.12;10.85;;;;;;;-0.23;97.86;99510.63;1661663;86;21217;-68
2020/12/29 09:31:08;;;;;;;38.10;17.52;;;;;;;-0.25;97.86;99490.35;1663851;84;21588;-68
2020/12/29 09:33:37;;;;;;;27.65;13.32;;;;;;;-0.28;97.87;99490.78;1679395;80;21632;-71
2020/12/29 09:36:08;;;;;;;26.77;13.05;;;;;;;-0.27;97.88;99495.97;1684376;83;21722;-72
2020/12/29 09:38:36;;;;;;;26.97;13.10;;;;;;;-0.27;97.91;99494.67;1698696;83;21147;-72
2020/12/29 09:41:04;;;;;;;28.67;13.80;;;;;;;-0.25;97.93;99489.06;1689438;83;21275;-72
2020/12/29 09:43:34;;;;;;;27.87;14.28;;;;;;;-0.22;97.87;99492.92;1682506;85;21216;-73
2020/12/29 09:46:01;;;;;;;30.10;14.55;;;;;;;-0.22;97.85;99471.36;1680843;85;21702;-71
2020/12/29 09:48:31;;;;;;;30.02;14.40;;;;;;;-0.23;97.87;99453.69;1685664;80;21229;-68
2020/12/29 09:51:02;;;;;;;28.55;13.75;;;;;;;-0.20;97.91;99450.67;1710302;83;21213;-67
2020/12/29 09:53:32;;;;;;;29.20;14.07;;;;;;;-0.20;97.92;99454.55;1701029;83;21379;-69
2020/12/29 09:56:00;;;;;;;24.98;12.90;;;;;;;-0.20;97.96;99438.58;1699939;82;21628;-67
2020/12/29 09:58:29;;;;;;;27.77;13.38;;;;;;;-0.16;98.00;99439.00;1695783;83;21129;-66
2020/12/29 10:00:58;;;;;;;30.70;14.87;;;;;;;-0.14;98.03;99418.27;1703102;83;21185;-69
2020/12/29 10:03:25;;;;;;;31.12;14.28;;;;;;;-0.13;98.06;99435.53;1709784;83;21201;-66
2020/12/29 10:05:53;;;;;;;35.45;17.80;;;;;;;-0.09;98.04;99422.98;1709534;83;21380;-67
2020/12/29 10:08:21;;;;;;;37.25;16.95;;;;;;;-0.08;98.09;99441.54;1705962;83;21229;-68
2020/12/29 10:10:48;;;;;;;51.05;23.75;;;;;;;-0.06;98.03;99428.16;1680893;83;21182;-69
2020/12/29 10:13:19;;;;;;;53.02;25.62;;;;;;;-0.06;97.99;99421.25;1658068;85;21205;-70
2020/12/29 10:15:49;;;;;;;58.23;22.70;;;;;;;-0.04;97.91;99408.31;1677306;85;21201;-69
2020/12/29 10:18:19;;;;;;;35.52;16.95;;;;;;;-0.04;97.85;99398.80;1677345;85;21391;-68
2020/12/29 10:20:47;;;;;;;42.88;18.37;;;;;;;-0.06;97.87;99394.06;1677074;85;21685;-68
2020/12/29 10:23:14;;;;;;;31.80;13.90;;;;;;;-0.03;97.87;99378.95;1676076;82;21215;-69
2020/12/29 10:25:42;;;;;;;42.75;19.05;;;;;;;-0.03;97.85;99390.16;1674770;85;21719;-70
2020/12/29 10:28:10;;;;;;;47.75;21.12;;;;;;;-0.02;97.89;99390.60;1690662;78;21250;-73
2020/12/29 10:30:38;;;;;;;34.73;17.32;;;;;;;-0.03;97.85;99385.42;1662137;85;21395;-72
2020/12/29 10:33:06;;;;;;;37.75;15.43;;;;;;;-0.02;97.90;99395.78;1664107;85;21159;-71
2020/12/29 10:35:33;;;;;;;33.42;16.27;;;;;;;0.02;97.90;99408.25;1666869;85;21632;-72
2020/12/29 10:38:01;;;;;;;33.70;15.95;;;;;;;0.02;97.90;99391.42;1670030;85;21183;-72
2020/12/29 10:40:32;;;;;;;36.08;17.07;;;;;;;0.01;97.92;99394.90;1671172;84;21211;-72
2020/12/29 10:43:02;;;;;;;29.12;14.87;;;;;;;0.05;97.90;99401.78;1680571;78;22196;-70
2020/12/29 10:45:34;;;;;;;33.95;17.65;;;;;;;0.08;97.88;99395.72;1765935;80;21154;-69
2020/12/29 10:50:48;;;;;;;25.97;12.60;;;;;;;0.11;97.87;99372.39;1770432;79;22744;-69
2020/12/29 10:53:16;;;;;;;28.45;14.38;;;;;;;0.05;97.88;99396.60;1692476;82;21198;-70
2020/12/29 10:55:45;;;;;;;26.40;13.55;;;;;;;0.05;97.93;99390.13;1676871;84;21660;-66
2020/12/29 10:58:13;;;;;;;29.27;13.13;;;;;;;0.09;97.96;99383.19;1674662;84;21201;-64
2020/12/29 11:00:41;;;;;;;32.65;14.68;;;;;;;0.07;98.00;99398.75;1673528;84;22130;-65
2020/12/29 11:03:08;;;;;;;27.73;13.80;;;;;;;0.11;98.04;99393.10;1695328;84;21645;-64
2020/12/29 11:05:38;;;;;;;26.80;13.53;;;;;;;0.13;97.98;99396.10;1700241;84;21614;-63
2020/12/29 11:08:18;;;;;;;24.63;13.00;;;;;;;0.14;97.91;99410.78;1684942;84;21276;-62
2020/12/29 11:10:51;;;;;;;25.08;12.85;;;;;;;0.15;97.86;99398.25;1676296;84;21146;-65
2020/12/29 11:13:25;;;;;;;25.43;13.22;;;;;;;0.13;97.83;99399.98;1700149;84;21629;-65
2020/12/29 11:15:56;;;;;;;27.32;14.18;;;;;;;0.12;97.82;99399.58;1700098;84;21150;-63
2020/12/29 11:18:24;;;;;;;26.25;11.88;;;;;;;0.13;97.84;99387.04;1700215;84;21668;-64
2020/12/29 11:20:52;;;;;;;29.27;13.53;;;;;;;0.17;97.80;99394.37;1698865;84;21694;-64
2020/12/29 11:23:21;;;;;;;27.10;13.48;;;;;;;0.14;97.88;99392.66;1698804;84;21197;-65
2020/12/29 11:25:49;;;;;;;24.27;12.50;;;;;;;0.16;97.84;99383.16;1698737;84;21591;-63
2020/12/29 11:28:17;;;;;;;32.08;15.08;;;;;;;0.22;97.82;99380.09;1700126;84;21158;-64
2020/12/29 11:30:44;;;;;;;29.87;13.60;;;;;;;0.26;97.77;99383.09;1700388;84;21610;-63
2020/12/29 11:33:12;;;;;;;29.75;14.83;;;;;;;0.28;97.75;99378.33;1700420;84;21589;-63
2020/12/29 11:35:39;;;;;;;34.27;15.50;;;;;;;0.27;97.74;99357.61;1700387;84;21629;-62
2020/12/29 11:38:07;;;;;;;28.00;13.88;;;;;;;0.29;97.68;99374.00;1699269;84;21190;-66
2020/12/29 11:40:35;;;;;;;31.02;14.75;;;;;;;0.27;97.60;99361.48;1698803;84;21239;-63